Time;durP1;ratioP1;P1;durP2;ratioP2;P2;SDS_P1;SDS_P2;PMS_P1;PMS_P2;Temp;Humidity;BMP_temperature;BMP_pressure;BME280_temperature;BME280_humidity;BME280_pressure;Samples;Min_cycle;Max_cycle;Signal;HPM_P1;HPM_P2
2022/06/01 00:01:35;;;;;;;;;;;26.90;39.70;;;;;;5100193;28;1045;-38
2022/06/01 00:04:04;;;;;;;;;;;26.90;39.80;;;;;;5100373;28;926;-37
2022/06/01 00:06:30;;;;;;;;;;;26.90;39.60;;;;;;5099955;28;974;-41
2022/06/01 00:08:57;;;;;;;;;;;26.90;39.70;;;;;;5100376;28;933;-41
2022/06/01 00:11:24;;;;;;;;;;;26.90;39.70;;;;;;5099736;28;1906;-39
2022/06/01 00:13:51;;;;;;;;;;;26.90;39.70;;;;;;5100230;28;992;-41
2022/06/01 00:16:18;;;;;;;;;;;26.90;39.60;;;;;;5100080;28;1812;-41
2022/06/01 00:18:45;;;;;;;;;;;26.90;39.60;;;;;;5100223;28;1004;-39
2022/06/01 00:21:13;;;;;;;;;;;26.90;40.00;;;;;;5100191;28;998;-41
2022/06/01 00:23:39;;;;;;;;;;;26.80;39.80;;;;;;5099494;28;936;-40
2022/06/01 00:26:06;;;;;;;;;;;26.90;39.60;;;;;;5099204;28;1008;-41
2022/06/01 00:28:33;;;;;;;;;;;26.90;39.80;;;;;;5098380;28;999;-41
2022/06/01 00:31:00;;;;;;;;;;;26.90;39.70;;;;;;5099610;28;978;-40
2022/06/01 00:33:27;;;;;;;;;;;26.90;39.80;;;;;;5099795;28;1977;-41
2022/06/01 00:35:54;;;;;;;;;;;26.80;39.70;;;;;;5100072;28;932;-41
2022/06/01 00:38:22;;;;;;;;;;;26.80;39.70;;;;;;5099878;28;973;-41
2022/06/01 00:40:49;;;;;;;;;;;26.90;39.90;;;;;;5099523;28;1018;-42
2022/06/01 00:43:20;;;;;;;;;;;26.80;39.70;;;;;;5099600;28;976;-39
2022/06/01 00:45:47;;;;;;;;;;;26.90;39.80;;;;;;5099331;28;1020;-40
2022/06/01 00:48:14;;;;;;;;;;;26.80;39.70;;;;;;5100065;28;1005;-39
2022/06/01 00:50:43;;;;;;;;;;;26.80;39.70;;;;;;5099829;28;996;-41
2022/06/01 00:53:12;;;;;;;;;;;26.80;39.70;;;;;;5099789;28;1980;-38
2022/06/01 00:55:42;;;;;;;;;;;26.80;39.70;;;;;;5099749;28;985;-40
2022/06/01 00:58:11;;;;;;;;;;;26.90;39.90;;;;;;5099667;28;1051;-40
2022/06/01 01:00:40;;;;;;;;;;;26.80;39.60;;;;;;5099565;28;1332;-40
2022/06/01 01:03:10;;;;;;;;;;;26.80;39.70;;;;;;5100046;28;996;-41
2022/06/01 01:05:38;;;;;;;;;;;26.80;39.70;;;;;;5099063;28;1013;-41
2022/06/01 01:08:05;;;;;;;;;;;26.80;39.70;;;;;;5097856;28;882;-42
2022/06/01 01:10:33;;;;;;;;;;;26.80;39.70;;;;;;5099290;28;1013;-40
2022/06/01 01:13:04;;;;;;;;;;;26.80;39.60;;;;;;5099589;28;1898;-37
2022/06/01 01:15:34;;;;;;;;;;;26.80;39.60;;;;;;5099060;28;980;-41
2022/06/01 01:18:01;;;;;;;;;;;26.80;39.70;;;;;;5099026;28;1084;-41
2022/06/01 01:20:29;;;;;;;;;;;26.80;39.60;;;;;;5098102;28;940;-39
2022/06/01 01:23:05;;;;;;;;;;;26.80;39.70;;;;;;5098533;28;969;-41
2022/06/01 01:25:35;;;;;;;;;;;26.80;39.60;;;;;;5098833;28;984;-40
2022/06/01 01:28:04;;;;;;;;;;;26.80;39.50;;;;;;5098473;28;933;-41
2022/06/01 01:30:42;;;;;;;;;;;26.80;39.50;;;;;;5098446;28;976;-40
2022/06/01 01:33:14;;;;;;;;;;;26.70;39.50;;;;;;5097251;28;1901;-40
2022/06/01 01:35:41;;;;;;;;;;;26.80;39.50;;;;;;5097836;28;928;-41
2022/06/01 01:38:10;;;;;;;;;;;26.80;39.50;;;;;;5098021;28;996;-41
2022/06/01 01:40:38;;;;;;;;;;;26.80;39.50;;;;;;5097353;28;1000;-39
2022/06/01 01:43:07;;;;;;;;;;;26.80;39.50;;;;;;5097779;28;973;-40
2022/06/01 01:45:36;;;;;;;;;;;26.70;39.40;;;;;;5098070;28;960;-40
2022/06/01 01:48:02;;;;;;;;;;;26.70;39.50;;;;;;5097984;28;1506;-41
2022/06/01 01:50:29;;;;;;;;;;;26.70;39.40;;;;;;5098380;28;917;-41
2022/06/01 01:52:56;;;;;;;;;;;26.70;39.50;;;;;;5098238;28;1914;-41
2022/06/01 01:55:26;;;;;;;;;;;26.70;39.40;;;;;;5097663;28;996;-41
2022/06/01 01:57:57;;;;;;;;;;;26.70;39.30;;;;;;5097760;28;941;-40
2022/06/01 02:00:28;;;;;;;;;;;26.70;39.40;;;;;;5097085;28;1035;-36
2022/06/01 02:02:58;;;;;;;;;;;26.70;39.40;;;;;;5097905;28;1012;-39
2022/06/01 02:08:19;;;;;;;;;;;26.70;39.40;;;;;;5096564;28;616;-37
2022/06/01 02:13:32;;;;;;;;;;;26.70;39.40;;;;;;5096781;28;1909;-36
2022/06/01 02:16:00;;;;;;;;;;;26.70;39.50;;;;;;5097180;28;1008;-38
2022/06/01 02:18:29;;;;;;;;;;;26.60;39.40;;;;;;5096676;28;948;-39
2022/06/01 02:20:59;;;;;;;;;;;26.60;39.40;;;;;;5096564;28;1098;-38
2022/06/01 02:23:26;;;;;;;;;;;26.60;39.40;;;;;;5097041;28;1008;-37
2022/06/01 02:25:55;;;;;;;;;;;26.70;39.40;;;;;;5098264;28;993;-37
2022/06/01 02:28:22;;;;;;;;;;;26.70;39.50;;;;;;5097043;28;916;-36
2022/06/01 02:30:50;;;;;;;;;;;26.60;39.30;;;;;;5096132;28;1024;-37
2022/06/01 02:33:18;;;;;;;;;;;26.60;39.40;;;;;;5096289;28;1910;-39
2022/06/01 02:35:47;;;;;;;;;;;26.60;39.30;;;;;;5097469;28;975;-40
2022/06/01 02:38:17;;;;;;;;;;;26.60;39.40;;;;;;5096312;28;950;-37
2022/06/01 02:40:44;;;;;;;;;;;26.60;39.30;;;;;;5097228;28;1089;-36
2022/06/01 02:43:10;;;;;;;;;;;26.60;39.30;;;;;;5097201;28;984;-37
2022/06/01 02:45:38;;;;;;;;;;;26.60;39.30;;;;;;5097741;28;1015;-37
2022/06/01 02:48:07;;;;;;;;;;;26.60;39.30;;;;;;5098081;28;907;-36
2022/06/01 02:50:35;;;;;;;;;;;26.60;39.20;;;;;;5098022;28;980;-37
2022/06/01 02:53:02;;;;;;;;;;;26.60;39.20;;;;;;5097080;28;1906;-37
2022/06/01 02:55:30;;;;;;;;;;;26.60;39.20;;;;;;5097915;28;973;-36
2022/06/01 02:57:57;;;;;;;;;;;26.60;39.20;;;;;;5098283;28;1020;-37
2022/06/01 03:00:26;;;;;;;;;;;26.60;39.20;;;;;;5097761;28;1027;-38
2022/06/01 03:02:54;;;;;;;;;;;26.50;39.20;;;;;;5097731;28;881;-37
2022/06/01 03:05:22;;;;;;;;;;;26.50;39.20;;;;;;5098097;28;1031;-35
2022/06/01 03:07:49;;;;;;;;;;;26.60;39.10;;;;;;5097248;28;1008;-37
2022/06/01 03:10:16;;;;;;;;;;;26.50;39.10;;;;;;5097109;28;941;-37
2022/06/01 03:12:43;;;;;;;;;;;26.50;39.20;;;;;;5097029;28;1905;-37
2022/06/01 03:15:11;;;;;;;;;;;26.50;39.20;;;;;;5097690;28;941;-36
2022/06/01 03:17:38;;;;;;;;;;;26.50;39.20;;;;;;5098204;28;917;-37
2022/06/01 03:20:08;;;;;;;;;;;26.50;39.10;;;;;;5098095;28;960;-37
2022/06/01 03:22:36;;;;;;;;;;;26.40;39.20;;;;;;5097070;28;936;-36
2022/06/01 03:25:03;;;;;;;;;;;26.50;39.20;;;;;;5097316;28;952;-36
2022/06/01 03:27:30;;;;;;;;;;;26.50;39.10;;;;;;5097575;28;1012;-37
2022/06/01 03:29:57;;;;;;;;;;;26.40;39.00;;;;;;5098731;28;932;-37
2022/06/01 03:32:24;;;;;;;;;;;26.40;39.00;;;;;;5101274;28;1906;-40
2022/06/01 03:34:50;;;;;;;;;;;26.40;39.00;;;;;;5101353;28;999;-36
2022/06/01 03:37:17;;;;;;;;;;;26.50;39.00;;;;;;5100519;28;1004;-36
2022/06/01 03:39:45;;;;;;;;;;;26.40;39.00;;;;;;5100196;28;1052;-36
2022/06/01 03:42:12;;;;;;;;;;;26.40;39.00;;;;;;5099779;28;1000;-36
2022/06/01 03:47:23;;;;;;;;;;;26.40;39.00;;;;;;5099494;28;880;-35
2022/06/01 03:49:50;;;;;;;;;;;26.40;39.00;;;;;;5099575;28;944;-36
2022/06/01 03:52:16;;;;;;;;;;;26.40;39.00;;;;;;5100583;28;1017;-36
2022/06/01 03:54:45;;;;;;;;;;;26.40;39.00;;;;;;5099451;28;1906;-36
2022/06/01 03:57:12;;;;;;;;;;;26.40;39.00;;;;;;5098308;28;1057;-38
2022/06/01 03:59:39;;;;;;;;;;;26.40;39.00;;;;;;5098333;28;960;-36
2022/06/01 04:02:07;;;;;;;;;;;26.40;39.00;;;;;;5098596;28;1138;-36
2022/06/01 04:04:34;;;;;;;;;;;26.40;40.10;;;;;;5099109;28;1028;-37
2022/06/01 04:07:01;;;;;;;;;;;26.40;39.00;;;;;;5098039;28;1011;-36
2022/06/01 04:09:30;;;;;;;;;;;26.40;39.00;;;;;;5097770;28;1104;-36
2022/06/01 04:11:58;;;;;;;;;;;26.40;38.90;;;;;;5097511;28;925;-36
2022/06/01 04:14:25;;;;;;;;;;;26.40;38.90;;;;;;5098584;28;1910;-36
2022/06/01 04:16:52;;;;;;;;;;;26.40;39.00;;;;;;5098931;28;939;-39
2022/06/01 04:19:18;;;;;;;;;;;26.40;38.90;;;;;;5097925;28;994;-36
2022/06/01 04:21:47;;;;;;;;;;;26.40;39.00;;;;;;5097861;28;949;-36
2022/06/01 04:24:15;;;;;;;;;;;26.30;39.00;;;;;;5097871;28;1138;-37
2022/06/01 04:26:43;;;;;;;;;;;26.30;39.00;;;;;;5098586;28;1009;-37
2022/06/01 04:29:11;;;;;;;;;;;26.40;39.00;;;;;;5098024;28;945;-36
2022/06/01 04:31:38;;;;;;;;;;;26.40;39.00;;;;;;5097133;28;1024;-37
2022/06/01 04:34:05;;;;;;;;;;;26.40;39.20;;;;;;5097737;28;1906;-37
2022/06/01 04:36:32;;;;;;;;;;;26.30;38.90;;;;;;5097519;28;952;-37
2022/06/01 04:38:59;;;;;;;;;;;26.30;38.90;;;;;;5097645;28;1067;-37
2022/06/01 04:41:26;;;;;;;;;;;26.30;38.90;;;;;;5097099;28;972;-37
2022/06/01 04:43:53;;;;;;;;;;;26.30;39.00;;;;;;5097131;28;991;-37
2022/06/01 04:46:21;;;;;;;;;;;26.30;39.00;;;;;;5096964;28;957;-39
2022/06/01 04:48:48;;;;;;;;;;;26.30;38.90;;;;;;5096654;28;996;-41
2022/06/01 04:51:15;;;;;;;;;;;26.30;39.00;;;;;;5096628;28;1003;-41
2022/06/01 04:53:42;;;;;;;;;;;26.30;38.90;;;;;;5098235;28;1901;-41
2022/06/01 04:56:10;;;;;;;;;;;26.30;38.90;;;;;;5095603;28;993;-38
2022/06/01 04:58:37;;;;;;;;;;;26.30;38.90;;;;;;5096858;28;990;-40
2022/06/01 05:01:04;;;;;;;;;;;26.30;38.90;;;;;;5097348;28;1249;-41
2022/06/01 05:03:33;;;;;;;;;;;26.30;38.90;;;;;;5097718;28;962;-40
2022/06/01 05:06:00;;;;;;;;;;;26.30;38.80;;;;;;5095576;28;1007;-40
2022/06/01 05:08:26;;;;;;;;;;;26.30;38.80;;;;;;5096785;28;1009;-41
2022/06/01 05:10:53;;;;;;;;;;;26.40;38.80;;;;;;5096270;28;1170;-38
2022/06/01 05:13:21;;;;;;;;;;;26.30;38.80;;;;;;5096674;28;1898;-40
2022/06/01 05:15:48;;;;;;;;;;;26.30;38.70;;;;;;5096272;28;948;-40
2022/06/01 05:18:15;;;;;;;;;;;26.30;38.80;;;;;;5096639;28;957;-40
2022/06/01 05:20:43;;;;;;;;;;;26.30;38.80;;;;;;5094541;28;988;-41
2022/06/01 05:23:10;;;;;;;;;;;26.30;38.80;;;;;;5094335;28;940;-41
2022/06/01 05:25:37;;;;;;;;;;;26.30;39.00;;;;;;5094537;28;1020;-41
2022/06/01 05:28:03;;;;;;;;;;;26.30;38.90;;;;;;5095114;28;1031;-39
2022/06/01 05:30:30;;;;;;;;;;;26.30;38.90;;;;;;5094148;28;922;-41
2022/06/01 05:32:57;;;;;;;;;;;26.30;38.90;;;;;;5093629;28;1968;-41
2022/06/01 05:35:24;;;;;;;;;;;26.30;39.00;;;;;;5094338;28;964;-41
2022/06/01 05:37:52;;;;;;;;;;;26.30;39.00;;;;;;5095706;28;1007;-39
2022/06/01 05:40:19;;;;;;;;;;;26.30;39.00;;;;;;5094646;28;1005;-41
2022/06/01 05:42:45;;;;;;;;;;;26.30;39.00;;;;;;5094443;28;925;-38
2022/06/01 05:45:12;;;;;;;;;;;26.30;38.90;;;;;;5095427;28;952;-38
2022/06/01 05:47:39;;;;;;;;;;;26.30;39.00;;;;;;5094258;28;1016;-38
2022/06/01 05:50:06;;;;;;;;;;;26.30;38.90;;;;;;5095169;28;952;-37
2022/06/01 05:52:38;;;;;;;;;;;26.30;38.80;;;;;;5094671;28;1043;-39
2022/06/01 05:55:08;;;;;;;;;;;26.30;38.90;;;;;;5095399;28;1978;-43
2022/06/01 05:57:35;;;;;;;;;;;26.40;38.90;;;;;;5095984;28;992;-42
2022/06/01 06:00:02;;;;;;;;;;;26.40;38.80;;;;;;5094049;28;1215;-42
2022/06/01 06:02:29;;;;;;;;;;;26.30;39.00;;;;;;5094403;28;1009;-42
2022/06/01 06:04:56;;;;;;;;;;;26.30;38.90;;;;;;5094061;28;984;-42
2022/06/01 06:07:23;;;;;;;;;;;26.30;39.00;;;;;;5095456;28;1004;-42
2022/06/01 06:09:49;;;;;;;;;;;26.30;39.00;;;;;;5097123;28;885;-43
2022/06/01 06:12:17;;;;;;;;;;;26.30;39.00;;;;;;5095077;28;961;-43
2022/06/01 06:14:44;;;;;;;;;;;26.30;38.90;;;;;;5095731;28;1898;-43
2022/06/01 06:17:11;;;;;;;;;;;26.30;39.00;;;;;;5095120;28;1035;-41
2022/06/01 06:19:38;;;;;;;;;;;26.30;39.00;;;;;;5093327;28;1004;-42
2022/06/01 06:22:06;;;;;;;;;;;26.30;39.10;;;;;;5094110;28;904;-43
2022/06/01 06:24:33;;;;;;;;;;;26.30;39.10;;;;;;5093498;28;1152;-47
2022/06/01 06:27:00;;;;;;;;;;;26.40;39.80;;;;;;5092683;28;861;-47
2022/06/01 06:29:28;;;;;;;;;;;26.60;38.90;;;;;;5092924;28;986;-47
2022/06/01 06:31:54;;;;;;;;;;;26.50;38.70;;;;;;5098028;28;1516;-47
2022/06/01 06:34:21;;;;;;;;;;;26.40;38.80;;;;;;5113182;28;1905;-47
2022/06/01 06:36:48;;;;;;;;;;;26.50;38.80;;;;;;5114091;28;949;-45
2022/06/01 06:39:15;;;;;;;;;;;26.50;39.60;;;;;;5114751;28;991;-41
2022/06/01 06:41:42;;;;;;;;;;;26.60;39.00;;;;;;5115423;28;1797;-39
2022/06/01 06:44:09;;;;;;;;;;;26.40;39.50;;;;;;5115362;28;1255;-42
2022/06/01 06:46:37;;;;;;;;;;;26.20;39.60;;;;;;5115213;28;1008;-43
2022/06/01 06:49:04;;;;;;;;;;;26.20;40.00;;;;;;5115419;28;1021;-42
2022/06/01 06:51:31;;;;;;;;;;;26.20;39.80;;;;;;5114875;28;937;-39
2022/06/01 06:53:57;;;;;;;;;;;26.20;40.00;;;;;;5115104;28;1977;-41
2022/06/01 06:56:24;;;;;;;;;;;26.20;39.80;;;;;;5115382;28;1949;-43
2022/06/01 06:58:51;;;;;;;;;;;26.20;39.90;;;;;;5114388;28;998;-42
2022/06/01 07:01:18;;;;;;;;;;;26.20;39.90;;;;;;5113908;28;1113;-43
2022/06/01 07:03:46;;;;;;;;;;;26.20;39.70;;;;;;5115342;28;1770;-42
2022/06/01 07:06:13;;;;;;;;;;;26.20;39.80;;;;;;5118144;28;931;-41
2022/06/01 07:08:41;;;;;;;;;;;26.30;39.70;;;;;;5118204;28;937;-41
2022/06/01 07:11:08;;;;;;;;;;;26.20;39.70;;;;;;5119584;28;1167;-42
2022/06/01 07:13:35;;;;;;;;;;;26.20;39.70;;;;;;5119381;28;2074;-42
2022/06/01 07:16:06;;;;;;;;;;;26.20;39.80;;;;;;5118961;28;1100;-41
2022/06/01 07:18:33;;;;;;;;;;;26.20;39.60;;;;;;5118422;28;977;-42
2022/06/01 07:21:02;;;;;;;;;;;26.20;39.80;;;;;;5117654;28;977;-41
2022/06/01 07:23:28;;;;;;;;;;;26.20;39.70;;;;;;5118371;28;1000;-40
2022/06/01 07:25:55;;;;;;;;;;;26.20;39.70;;;;;;5116920;28;907;-41
2022/06/01 07:28:22;;;;;;;;;;;26.20;39.70;;;;;;5117895;28;957;-43
2022/06/01 07:30:50;;;;;;;;;;;26.20;39.70;;;;;;5117241;28;969;-42
2022/06/01 07:33:17;;;;;;;;;;;26.30;39.70;;;;;;5117323;28;971;-41
2022/06/01 07:35:43;;;;;;;;;;;26.20;39.60;;;;;;5117777;28;1905;-41
2022/06/01 07:43:41;;;;;;;;;;;26.30;39.80;;;;;;5118176;28;887;-40
2022/06/01 07:46:09;;;;;;;;;;;26.30;39.70;;;;;;5117523;28;1019;-41
2022/06/01 07:48:35;;;;;;;;;;;26.30;39.60;;;;;;5116795;28;1030;-41
2022/06/01 07:51:02;;;;;;;;;;;26.30;39.60;;;;;;5116886;28;968;-43
2022/06/01 07:53:31;;;;;;;;;;;26.30;39.60;;;;;;5115732;28;980;-42
2022/06/01 07:55:58;;;;;;;;;;;26.30;39.60;;;;;;5116412;28;1905;-42
2022/06/01 07:58:25;;;;;;;;;;;26.30;39.60;;;;;;5116588;28;968;-44
2022/06/01 08:00:51;;;;;;;;;;;26.30;39.60;;;;;;5116565;28;1430;-42
2022/06/01 08:03:20;;;;;;;;;;;26.30;39.50;;;;;;5115164;28;1134;-43
2022/06/01 08:05:47;;;;;;;;;;;26.20;39.50;;;;;;5116289;28;944;-43
2022/06/01 08:08:13;;;;;;;;;;;26.20;39.60;;;;;;5117000;28;1013;-43
2022/06/01 08:10:42;;;;;;;;;;;26.20;39.60;;;;;;5115947;28;1041;-42
2022/06/01 08:13:09;;;;;;;;;;;26.30;39.60;;;;;;5117223;28;1039;-43
2022/06/01 08:15:38;;;;;;;;;;;26.30;39.60;;;;;;5115649;28;1902;-43
2022/06/01 08:18:05;;;;;;;;;;;26.20;39.60;;;;;;5116176;28;976;-43
2022/06/01 08:20:32;;;;;;;;;;;26.20;39.40;;;;;;5115804;28;984;-43
2022/06/01 08:22:59;;;;;;;;;;;26.30;39.60;;;;;;5116449;28;960;-42
2022/06/01 08:25:27;;;;;;;;;;;26.30;39.60;;;;;;5115635;28;957;-43
2022/06/01 08:27:55;;;;;;;;;;;26.30;39.50;;;;;;5115639;28;881;-42
2022/06/01 08:30:23;;;;;;;;;;;26.30;39.50;;;;;;5116080;28;956;-43
2022/06/01 08:32:50;;;;;;;;;;;26.20;39.40;;;;;;5116345;28;1007;-43
2022/06/01 08:35:18;;;;;;;;;;;26.30;39.40;;;;;;5116444;28;1975;-42
2022/06/01 08:37:46;;;;;;;;;;;26.30;39.30;;;;;;5115494;28;1183;-44
2022/06/01 08:40:13;;;;;;;;;;;26.30;39.40;;;;;;5116559;28;1028;-43
2022/06/01 08:42:42;;;;;;;;;;;26.30;39.40;;;;;;5115569;28;977;-42
2022/06/01 08:45:10;;;;;;;;;;;26.30;39.40;;;;;;5116327;28;941;-44
2022/06/01 08:47:39;;;;;;;;;;;26.40;39.20;;;;;;5117374;28;1534;-43
2022/06/01 08:50:09;;;;;;;;;;;26.40;39.30;;;;;;5117662;28;942;-43
2022/06/01 08:52:35;;;;;;;;;;;26.40;39.20;;;;;;5116682;28;991;-40
2022/06/01 08:55:02;;;;;;;;;;;26.40;39.00;;;;;;5117487;28;1913;-42
2022/06/01 08:57:31;;;;;;;;;;;26.50;38.90;;;;;;5117174;28;1035;-43
2022/06/01 09:00:02;;;;;;;;;;;26.60;38.70;;;;;;5117537;28;1066;-43
2022/06/01 09:02:39;;;;;;;;;;;26.50;38.70;;;;;;5117048;28;973;-43
2022/06/01 09:05:08;;;;;;;;;;;26.50;38.60;;;;;;5117127;28;1852;-40
2022/06/01 09:07:38;;;;;;;;;;;26.60;38.60;;;;;;5116741;28;1038;-40
2022/06/01 09:10:18;;;;;;;;;;;26.60;38.50;;;;;;5116391;28;1031;-43
2022/06/01 09:12:46;;;;;;;;;;;26.50;38.60;;;;;;5117224;28;917;-41
2022/06/01 09:15:17;;;;;;;;;;;26.50;38.70;;;;;;5116286;28;1975;-43
2022/06/01 09:17:45;;;;;;;;;;;26.50;38.80;;;;;;5117224;28;917;-41
2022/06/01 09:23:00;;;;;;;;;;;26.50;38.50;;;;;;5115913;28;912;-42
2022/06/01 09:25:28;;;;;;;;;;;26.50;38.50;;;;;;5115463;28;1001;-42
2022/06/01 09:27:59;;;;;;;;;;;26.50;38.50;;;;;;5115168;28;1024;-40
2022/06/01 09:30:27;;;;;;;;;;;26.60;38.50;;;;;;5115211;28;983;-44
2022/06/01 09:33:04;;;;;;;;;;;26.60;38.40;;;;;;5115338;28;879;-40
2022/06/01 09:35:33;;;;;;;;;;;26.50;38.60;;;;;;5116363;28;1906;-44
2022/06/01 09:38:03;;;;;;;;;;;26.40;38.70;;;;;;5114994;28;1005;-43
2022/06/01 09:40:30;;;;;;;;;;;26.40;38.80;;;;;;5115822;28;1040;-42
2022/06/01 09:43:00;;;;;;;;;;;26.40;39.00;;;;;;5114762;28;897;-42
2022/06/01 09:45:27;;;;;;;;;;;26.40;39.00;;;;;;5115208;28;1023;-41
2022/06/01 09:48:06;;;;;;;;;;;26.40;39.10;;;;;;5113865;28;1011;-41
2022/06/01 09:50:35;;;;;;;;;;;26.30;39.10;;;;;;5114587;28;980;-42
2022/06/01 09:53:12;;;;;;;;;;;26.30;38.90;;;;;;5113201;28;1032;-43
2022/06/01 09:55:50;;;;;;;;;;;26.30;38.90;;;;;;5101848;28;1902;-42
2022/06/01 10:06:05;;;;;;;;;;;26.40;38.80;;;;;;5089350;28;982;-43
2022/06/01 10:06:51;;;;;;;;;;;26.30;39.00;;;;;;5114445;28;731;-40
2022/06/01 10:09:21;;;;;;;;;;;26.40;39.10;;;;;;5113666;28;948;-42
2022/06/01 10:11:51;;;;;;;;;;;26.40;38.80;;;;;;5114302;28;921;-42
2022/06/01 10:14:21;;;;;;;;;;;26.40;39.00;;;;;;5113834;28;1048;-42
2022/06/01 10:16:56;;;;;;;;;;;26.40;38.80;;;;;;5113489;28;1970;-42
2022/06/01 10:19:26;;;;;;;;;;;26.40;38.90;;;;;;5109151;28;1011;-41
2022/06/01 10:21:58;;;;;;;;;;;26.40;38.80;;;;;;5113696;28;908;-44
2022/06/01 10:24:28;;;;;;;;;;;26.40;38.80;;;;;;5110987;28;1028;-44
2022/06/01 10:26:58;;;;;;;;;;;26.40;38.90;;;;;;5112638;28;1016;-43
2022/06/01 10:29:28;;;;;;;;;;;26.40;39.00;;;;;;5114968;28;1012;-42
2022/06/01 10:31:56;;;;;;;;;;;26.40;38.80;;;;;;5113794;28;992;-42
2022/06/01 10:34:25;;;;;;;;;;;26.40;38.80;;;;;;5115104;28;1138;-40
2022/06/01 10:36:53;;;;;;;;;;;26.40;38.90;;;;;;5112540;28;1974;-42
2022/06/01 10:39:24;;;;;;;;;;;26.40;39.00;;;;;;5112742;28;1098;-44
2022/06/01 10:41:55;;;;;;;;;;;26.40;39.00;;;;;;5113510;28;1729;-43
2022/06/01 10:44:26;;;;;;;;;;;26.40;39.00;;;;;;5113704;28;953;-43
2022/06/01 10:46:57;;;;;;;;;;;26.40;39.00;;;;;;5113246;28;869;-39
2022/06/01 10:49:28;;;;;;;;;;;26.40;39.00;;;;;;5112997;28;1110;-43
2022/06/01 10:52:00;;;;;;;;;;;26.40;38.90;;;;;;5111459;28;949;-43
2022/06/01 10:54:30;;;;;;;;;;;26.40;39.00;;;;;;5113985;28;1135;-42
2022/06/01 10:56:57;;;;;;;;;;;26.40;39.00;;;;;;5113103;28;1963;-43
2022/06/01 10:59:25;;;;;;;;;;;26.30;39.00;;;;;;5112159;28;1108;-44
2022/06/01 11:01:57;;;;;;;;;;;26.40;38.90;;;;;;5113221;28;1053;-43
2022/06/01 11:04:46;;;;;;;;;;;26.40;38.90;;;;;;5112671;28;1091;-44
2022/06/01 11:07:33;;;;;;;;;;;26.40;38.90;;;;;;5113145;28;972;-43
2022/06/01 11:10:04;;;;;;;;;;;26.40;38.80;;;;;;5105460;28;1013;-40
2022/06/01 11:12:36;;;;;;;;;;;26.40;38.90;;;;;;5113469;28;1024;-42
2022/06/01 11:15:07;;;;;;;;;;;26.40;38.80;;;;;;5111852;28;1977;-43
2022/06/01 11:17:37;;;;;;;;;;;26.40;38.80;;;;;;5112120;28;954;-42
2022/06/01 11:20:19;;;;;;;;;;;26.40;39.00;;;;;;5114137;28;1007;-44
2022/06/01 11:22:52;;;;;;;;;;;26.40;39.00;;;;;;5113572;28;996;-43
2022/06/01 11:25:22;;;;;;;;;;;26.40;38.90;;;;;;5111976;28;880;-43
2022/06/01 11:27:57;;;;;;;;;;;26.40;39.00;;;;;;5111618;28;988;-42
2022/06/01 11:30:26;;;;;;;;;;;26.40;39.00;;;;;;5113033;28;972;-42
2022/06/01 11:32:56;;;;;;;;;;;26.40;38.90;;;;;;5110435;28;1027;-40
2022/06/01 11:35:28;;;;;;;;;;;26.40;39.00;;;;;;5111170;28;1985;-41
2022/06/01 11:37:58;;;;;;;;;;;26.40;38.90;;;;;;5112502;28;1034;-43
2022/06/01 11:40:32;;;;;;;;;;;26.40;38.90;;;;;;5112162;28;1035;-39
2022/06/01 11:43:02;;;;;;;;;;;26.40;38.80;;;;;;5112591;28;1082;-44
2022/06/01 11:45:31;;;;;;;;;;;26.40;38.90;;;;;;5110906;28;940;-43
2022/06/01 11:48:03;;;;;;;;;;;26.40;38.90;;;;;;5111289;28;1047;-42
2022/06/01 11:50:46;;;;;;;;;;;26.40;39.00;;;;;;5113450;28;1345;-42
2022/06/01 11:53:13;;;;;;;;;;;26.40;39.10;;;;;;5115669;28;1035;-43
2022/06/01 11:55:43;;;;;;;;;;;26.40;39.00;;;;;;5116641;28;1910;-44
2022/06/01 11:58:12;;;;;;;;;;;26.40;39.00;;;;;;5115121;28;945;-42
2022/06/01 12:00:41;;;;;;;;;;;26.40;39.00;;;;;;5117909;28;1266;-40
2022/06/01 12:03:26;;;;;;;;;;;26.40;39.00;;;;;;5115080;28;1005;-42
2022/06/01 12:06:00;;;;;;;;;;;26.40;38.90;;;;;;5114778;28;924;-44
2022/06/01 12:08:30;;;;;;;;;;;26.40;39.00;;;;;;5113195;28;1105;-41
2022/06/01 12:11:00;;;;;;;;;;;26.40;39.00;;;;;;5117313;28;988;-42
2022/06/01 12:13:28;;;;;;;;;;;26.40;39.00;;;;;;5117609;28;925;-43
2022/06/01 12:16:09;;;;;;;;;;;26.40;39.00;;;;;;5116587;28;1906;-44
2022/06/01 12:18:36;;;;;;;;;;;26.40;39.00;;;;;;5116536;28;1035;-44
2022/06/01 12:21:18;;;;;;;;;;;26.40;39.00;;;;;;5114742;28;1895;-44
2022/06/01 12:29:57;;;;;;;;;;;26.40;39.10;;;;;;5114259;28;710;-44
2022/06/01 12:32:24;;;;;;;;;;;26.40;39.10;;;;;;5114126;28;1017;-43
2022/06/01 12:35:11;;;;;;;;;;;26.40;39.10;;;;;;5113439;28;1011;-41
2022/06/01 12:37:40;;;;;;;;;;;26.40;39.20;;;;;;5113229;28;970;-43
2022/06/01 12:40:12;;;;;;;;;;;26.40;39.10;;;;;;5114509;28;996;-41
2022/06/01 12:42:42;;;;;;;;;;;26.40;39.10;;;;;;5115313;28;913;-43
2022/06/01 12:45:14;;;;;;;;;;;26.40;39.20;;;;;;5114466;28;972;-43
2022/06/01 12:47:43;;;;;;;;;;;26.40;39.10;;;;;;5113985;28;948;-43
2022/06/01 12:50:11;;;;;;;;;;;26.40;39.20;;;;;;5113791;28;1011;-44
2022/06/01 12:52:38;;;;;;;;;;;26.40;39.00;;;;;;5113544;28;1019;-41
2022/06/01 12:55:07;;;;;;;;;;;26.40;39.10;;;;;;5113766;28;957;-42
2022/06/01 12:57:37;;;;;;;;;;;26.40;39.00;;;;;;5113572;28;1984;-43
2022/06/01 13:00:08;;;;;;;;;;;26.40;39.10;;;;;;5113754;28;1073;-44
2022/06/01 13:02:37;;;;;;;;;;;26.40;39.00;;;;;;5111412;28;999;-42
2022/06/01 13:05:05;;;;;;;;;;;26.40;39.00;;;;;;5115324;28;944;-41
2022/06/01 13:07:35;;;;;;;;;;;26.40;38.90;;;;;;5111945;28;999;-42
2022/06/01 13:10:03;;;;;;;;;;;26.40;38.90;;;;;;5113267;28;1008;-44
2022/06/01 13:12:31;;;;;;;;;;;26.40;38.90;;;;;;5114808;28;936;-42
2022/06/01 13:15:08;;;;;;;;;;;26.40;39.00;;;;;;5113715;28;932;-43
2022/06/01 13:17:35;;;;;;;;;;;26.40;39.00;;;;;;5113973;28;1905;-43
2022/06/01 13:20:04;;;;;;;;;;;26.40;38.90;;;;;;5113208;28;941;-43
2022/06/01 13:22:34;;;;;;;;;;;26.40;39.00;;;;;;5113896;28;972;-42
2022/06/01 13:25:04;;;;;;;;;;;26.40;39.00;;;;;;5113960;28;1027;-41
2022/06/01 13:27:31;;;;;;;;;;;26.40;38.90;;;;;;5113627;28;1027;-42
2022/06/01 13:30:00;;;;;;;;;;;26.40;38.90;;;;;;5113513;28;760;-43
2022/06/01 13:32:29;;;;;;;;;;;26.40;39.10;;;;;;5113100;28;980;-44
2022/06/01 13:35:02;;;;;;;;;;;26.40;38.90;;;;;;5113873;28;956;-43
2022/06/01 13:37:30;;;;;;;;;;;26.40;39.00;;;;;;5121139;27;1983;-44
2022/06/01 13:39:59;;;;;;;;;;;26.40;39.10;;;;;;5112804;28;1557;-44
2022/06/01 13:42:31;;;;;;;;;;;26.40;39.00;;;;;;5114379;28;1016;-43
2022/06/01 13:45:06;;;;;;;;;;;26.40;39.00;;;;;;5114574;28;837;-43
2022/06/01 13:47:36;;;;;;;;;;;26.50;39.00;;;;;;5114050;28;921;-40
2022/06/01 13:50:08;;;;;;;;;;;26.50;39.00;;;;;;5114916;28;944;-44
2022/06/01 13:52:39;;;;;;;;;;;26.50;39.00;;;;;;5113952;28;1023;-44
2022/06/01 13:55:19;;;;;;;;;;;26.50;39.00;;;;;;5115788;28;1032;-43
2022/06/01 13:57:55;;;;;;;;;;;26.50;39.00;;;;;;5115601;28;1898;-43
2022/06/01 14:00:26;;;;;;;;;;;26.50;39.00;;;;;;5116055;28;1152;-42
2022/06/01 14:02:55;;;;;;;;;;;26.50;39.00;;;;;;5115522;28;976;-42
2022/06/01 14:05:24;;;;;;;;;;;26.60;39.10;;;;;;5115892;28;1008;-43
2022/06/01 14:07:57;;;;;;;;;;;26.60;39.00;;;;;;5115906;28;994;-41
2022/06/01 14:10:30;;;;;;;;;;;26.60;38.90;;;;;;5114417;28;1075;-42
2022/06/01 14:12:57;;;;;;;;;;;26.60;39.10;;;;;;5115004;28;978;-41
2022/06/01 14:15:24;;;;;;;;;;;26.60;39.00;;;;;;5115945;28;969;-43
2022/06/01 14:17:50;;;;;;;;;;;26.60;39.00;;;;;;5115453;28;1977;-43
2022/06/01 14:20:17;;;;;;;;;;;26.60;39.00;;;;;;5115940;28;933;-42
2022/06/01 14:22:44;;;;;;;;;;;26.60;38.90;;;;;;5115052;28;995;-44
2022/06/01 14:30:41;;;;;;;;;;;26.60;38.90;;;;;;5113893;28;678;-43
2022/06/01 14:33:10;;;;;;;;;;;26.60;38.80;;;;;;5113166;28;1030;-42
2022/06/01 14:35:37;;;;;;;;;;;26.60;38.90;;;;;;5113258;28;869;-43
2022/06/01 14:38:03;;;;;;;;;;;26.60;38.90;;;;;;5113412;28;1902;-44
2022/06/01 14:40:32;;;;;;;;;;;26.60;38.90;;;;;;5115174;28;1132;-44
2022/06/01 14:43:00;;;;;;;;;;;26.60;39.00;;;;;;5115326;28;1190;-43
2022/06/01 14:45:27;;;;;;;;;;;26.60;39.00;;;;;;5114920;28;1019;-40
2022/06/01 14:47:54;;;;;;;;;;;26.60;38.90;;;;;;5115724;28;975;-43
2022/06/01 14:50:21;;;;;;;;;;;26.70;38.90;;;;;;5115479;28;975;-43
2022/06/01 14:52:48;;;;;;;;;;;26.70;38.90;;;;;;5115354;28;1009;-42
2022/06/01 14:55:16;;;;;;;;;;;26.70;38.90;;;;;;5113816;28;934;-42
2022/06/01 14:57:45;;;;;;;;;;;26.70;38.70;;;;;;5113444;28;1977;-42
2022/06/01 15:00:12;;;;;;;;;;;26.70;38.70;;;;;;5115941;28;1131;-42
2022/06/01 15:02:39;;;;;;;;;;;26.80;38.70;;;;;;5116366;28;1411;-43
2022/06/01 15:05:06;;;;;;;;;;;26.80;38.70;;;;;;5116241;28;953;-41
2022/06/01 15:07:33;;;;;;;;;;;26.90;38.70;;;;;;5116411;28;1398;-41
2022/06/01 15:10:00;;;;;;;;;;;26.90;38.60;;;;;;5116022;28;715;-42
2022/06/01 15:12:27;;;;;;;;;;;26.90;38.50;;;;;;5116726;28;898;-43
2022/06/01 15:14:55;;;;;;;;;;;26.90;38.60;;;;;;5116746;28;1921;-42
2022/06/01 15:17:24;;;;;;;;;;;26.90;38.60;;;;;;5116765;28;1983;-42
2022/06/01 15:19:52;;;;;;;;;;;26.90;38.50;;;;;;5116150;28;1379;-41